createdAt,value
2023-02-12T00:00:08.735Z,53.24
2023-02-12T00:02:36.705Z,53.40
2023-02-12T00:05:04.757Z,53.44
2023-02-12T00:07:32.669Z,53.46
2023-02-12T00:10:00.587Z,53.54
2023-02-12T00:12:28.648Z,53.35
2023-02-12T00:14:56.531Z,53.35
2023-02-12T00:17:25.884Z,53.29
2023-02-12T00:19:53.809Z,53.27
2023-02-12T00:22:21.707Z,53.27
2023-02-12T00:24:49.581Z,53.25
2023-02-12T00:27:17.511Z,53.25
2023-02-12T00:29:45.363Z,53.50
2023-02-12T00:32:14.303Z,53.51
2023-02-12T00:34:43.579Z,53.63
2023-02-12T00:37:11.465Z,53.63
2023-02-12T00:39:39.341Z,53.50
2023-02-12T00:42:07.335Z,53.67
2023-02-12T00:44:35.459Z,53.61
2023-02-12T00:47:03.397Z,53.55
2023-02-12T00:49:34.117Z,53.43
2023-02-12T00:52:03.604Z,53.40
2023-02-12T00:54:31.603Z,53.61
2023-02-12T00:56:59.530Z,53.51
2023-02-12T00:59:27.458Z,53.54
2023-02-12T01:01:55.764Z,53.55
2023-02-12T01:04:23.852Z,53.48
2023-02-12T01:06:51.744Z,53.57
2023-02-12T01:09:21.063Z,53.83
2023-02-12T01:11:48.967Z,53.94
2023-02-12T01:14:16.860Z,53.93
2023-02-12T01:16:44.751Z,54.01
2023-02-12T01:19:12.781Z,54.37
2023-02-12T01:21:40.697Z,54.26
2023-02-12T01:24:08.700Z,54.10
2023-02-12T01:26:38.016Z,54.18
2023-02-12T01:29:07.823Z,54.31
2023-02-12T01:31:37.745Z,54.46
2023-02-12T01:34:06.487Z,54.20
2023-02-12T01:36:34.367Z,54.16
2023-02-12T01:39:03.684Z,54.03
2023-02-12T01:41:32.707Z,54.16
2023-02-12T01:44:18.186Z,54.41
2023-02-12T01:46:46.524Z,54.52
2023-02-12T01:49:16.361Z,54.46
2023-02-12T01:51:44.244Z,54.29
2023-02-12T01:54:12.883Z,54.33
2023-02-12T01:56:40.823Z,54.25
2023-02-12T01:59:08.702Z,54.12
2023-02-12T02:01:37.992Z,54.06
2023-02-12T02:04:07.646Z,54.28
2023-02-12T02:06:36.554Z,54.06
2023-02-12T02:09:04.927Z,54.13
2023-02-12T02:11:49.338Z,54.16
2023-02-12T02:14:35.416Z,54.18
2023-02-12T02:17:24.807Z,54.33
2023-02-12T02:20:12.507Z,54.19
2023-02-12T02:22:41.714Z,54.14
2023-02-12T02:25:36.910Z,54.00
2023-02-12T02:28:13.651Z,54.14
2023-02-12T02:30:45.557Z,54.36
2023-02-12T02:33:27.012Z,54.14
2023-02-12T02:35:57.108Z,54.33
2023-02-12T02:38:28.677Z,53.83
2023-02-12T02:40:59.714Z,54.22
2023-02-12T02:43:29.703Z,54.12
2023-02-12T02:46:01.044Z,54.14
2023-02-12T02:48:30.699Z,54.12
2023-02-12T02:51:00.358Z,54.19
2023-02-12T02:53:29.508Z,54.30
2023-02-12T02:55:58.239Z,54.25
2023-02-12T02:58:27.963Z,54.29
2023-02-12T03:00:58.651Z,54.15
2023-02-12T03:03:28.552Z,54.26
2023-02-12T03:05:57.778Z,54.32
2023-02-12T03:08:27.263Z,54.33
2023-02-12T03:10:56.371Z,54.44
2023-02-12T03:13:26.050Z,54.35
2023-02-12T03:15:55.644Z,54.44
2023-02-12T03:18:26.624Z,54.26
2023-02-12T03:20:56.726Z,54.32
2023-02-12T03:23:25.831Z,54.29
2023-02-12T03:25:57.033Z,54.38
2023-02-12T03:28:28.191Z,54.35
2023-02-12T03:30:59.761Z,54.34
2023-02-12T03:33:31.581Z,54.32
2023-02-12T03:36:03.310Z,54.50
2023-02-12T03:38:37.354Z,54.50
2023-02-12T03:41:07.566Z,54.59
2023-02-12T03:43:39.244Z,54.46
2023-02-12T03:46:09.684Z,54.62
2023-02-12T03:48:42.914Z,54.48
2023-02-12T03:51:14.898Z,54.36
2023-02-12T03:53:44.247Z,54.52
2023-02-12T03:56:14.018Z,54.59
2023-02-12T03:58:42.101Z,54.43
2023-02-12T04:01:10.142Z,54.59
2023-02-12T04:03:39.590Z,54.80
2023-02-12T04:06:16.808Z,54.45
2023-02-12T04:08:44.674Z,54.62
2023-02-12T04:11:17.817Z,54.48
2023-02-12T04:13:48.675Z,54.53
2023-02-12T04:16:21.208Z,54.54
2023-02-12T04:18:50.711Z,54.67
2023-02-12T04:21:23.804Z,54.60
2023-02-12T04:23:56.191Z,54.46
2023-02-12T04:26:25.747Z,54.47
2023-02-12T04:29:09.428Z,54.52
2023-02-12T04:31:39.711Z,54.42
2023-02-12T04:34:11.347Z,54.50
2023-02-12T04:36:42.932Z,54.45
2023-02-12T04:39:12.184Z,54.54
2023-02-12T04:41:40.442Z,54.57
2023-02-12T04:44:18.274Z,54.71
2023-02-12T04:46:46.321Z,54.67
2023-02-12T04:49:17.320Z,54.59
2023-02-12T04:51:45.241Z,54.45
2023-02-12T04:54:13.123Z,54.55
2023-02-12T04:56:40.983Z,54.53
2023-02-12T04:59:09.442Z,54.79
2023-02-12T05:01:37.575Z,54.70
2023-02-12T05:04:05.863Z,54.58
2023-02-12T05:06:35.903Z,54.58
2023-02-12T05:09:04.069Z,54.69
2023-02-12T05:11:32.011Z,54.76
2023-02-12T05:13:59.971Z,54.50
2023-02-12T05:16:27.909Z,54.68
2023-02-12T05:18:55.825Z,54.54
2023-02-12T05:21:23.684Z,54.71
2023-02-12T05:23:52.955Z,54.61
2023-02-12T05:26:21.651Z,54.87
2023-02-12T05:28:49.551Z,55.00
2023-02-12T05:31:21.504Z,55.10
2023-02-12T05:33:49.882Z,55.16
2023-02-12T05:36:18.672Z,54.95
2023-02-12T05:38:46.595Z,55.03
2023-02-12T05:41:16.570Z,55.00
2023-02-12T05:43:45.250Z,54.94
2023-02-12T05:46:14.107Z,55.01
2023-02-12T05:48:42.054Z,54.91
2023-02-12T05:51:10.987Z,55.06
2023-02-12T05:53:38.955Z,55.08
2023-02-12T05:56:11.906Z,55.07
2023-02-12T05:58:41.706Z,54.72
2023-02-12T06:01:13.754Z,54.73
2023-02-12T06:03:41.740Z,54.85
2023-02-12T06:06:09.649Z,54.79
2023-02-12T06:08:37.529Z,54.84
2023-02-12T06:11:07.494Z,54.94
2023-02-12T06:13:35.382Z,54.90
2023-02-12T06:16:04.984Z,54.99
2023-02-12T06:18:32.923Z,54.97
2023-02-12T06:21:00.863Z,54.95
2023-02-12T06:23:28.805Z,55.11
2023-02-12T06:25:57.649Z,54.95
2023-02-12T06:28:25.848Z,55.06
2023-02-12T06:30:53.839Z,55.02
2023-02-12T06:33:23.202Z,54.96
2023-02-12T06:35:51.084Z,55.03
2023-02-12T06:38:18.958Z,54.95
2023-02-12T06:40:46.822Z,54.99
2023-02-12T06:43:14.710Z,55.04
2023-02-12T06:45:42.585Z,55.06
2023-02-12T06:48:10.506Z,55.02
2023-02-12T06:50:39.817Z,55.06
2023-02-12T06:53:07.711Z,55.09
2023-02-12T06:55:35.997Z,55.05
2023-02-12T06:58:03.886Z,55.18
2023-02-12T07:00:31.929Z,55.14
2023-02-12T07:02:59.811Z,55.33
2023-02-12T07:05:27.760Z,55.20
2023-02-12T07:07:57.025Z,55.14
2023-02-12T07:10:24.888Z,55.25
2023-02-12T07:12:52.777Z,55.32
2023-02-12T07:15:20.643Z,55.17
2023-02-12T07:17:48.530Z,55.28
2023-02-12T07:20:16.519Z,55.24
2023-02-12T07:22:44.767Z,55.08
2023-02-12T07:25:14.102Z,55.15
2023-02-12T07:27:42.031Z,55.21
2023-02-12T07:30:10.824Z,55.20
2023-02-12T07:32:38.719Z,55.14
2023-02-12T07:35:07.143Z,55.19
2023-02-12T07:37:35.284Z,55.22
2023-02-12T07:40:03.249Z,55.25
2023-02-12T07:42:32.803Z,55.24
2023-02-12T07:45:00.750Z,55.28
2023-02-12T07:47:28.669Z,55.18
2023-02-12T07:49:56.763Z,55.27
2023-02-12T07:52:24.630Z,55.30
2023-02-12T07:54:52.505Z,55.43
2023-02-12T07:57:20.366Z,55.49
2023-02-12T07:59:49.654Z,55.44
2023-02-12T08:02:17.645Z,55.40
2023-02-12T08:04:45.700Z,55.43
2023-02-12T08:07:13.688Z,55.41
2023-02-12T08:09:41.676Z,55.41
2023-02-12T08:12:09.616Z,55.44
2023-02-12T08:14:37.530Z,55.53
2023-02-12T08:17:08.381Z,55.58
2023-02-12T08:19:36.549Z,55.64
2023-02-12T08:22:06.477Z,55.95
2023-02-12T08:24:34.408Z,56.19
2023-02-12T08:27:02.477Z,56.12
2023-02-12T08:29:30.971Z,56.06
2023-02-12T08:31:59.764Z,56.16
2023-02-12T08:34:29.867Z,56.20
2023-02-12T08:36:57.917Z,56.19
2023-02-12T08:39:28.467Z,56.17
2023-02-12T08:41:56.507Z,56.19
2023-02-12T08:44:24.437Z,55.99
2023-02-12T08:46:53.178Z,55.82
2023-02-12T08:49:22.164Z,55.97
2023-02-12T08:51:52.423Z,56.02
2023-02-12T08:54:23.805Z,56.13
2023-02-12T08:56:51.795Z,55.95
2023-02-12T08:59:19.702Z,55.79
2023-02-12T09:01:47.581Z,55.83
2023-02-12T09:04:17.947Z,55.90
2023-02-12T09:06:46.070Z,55.85
2023-02-12T09:09:15.582Z,55.81
2023-02-12T09:11:43.535Z,55.82
2023-02-12T09:14:12.807Z,55.79
2023-02-12T09:16:40.819Z,55.79
2023-02-12T09:19:08.870Z,55.67
2023-02-12T09:21:36.747Z,55.73
2023-02-12T09:24:04.898Z,55.66
2023-02-12T09:26:34.257Z,55.60
2023-02-12T09:29:02.942Z,55.54
2023-02-12T09:31:31.475Z,55.64
2023-02-12T09:34:00.691Z,55.39
2023-02-12T09:36:28.578Z,55.48
2023-02-12T09:38:56.645Z,55.41
2023-02-12T09:42:12.925Z,55.51
2023-02-12T09:44:45.480Z,55.31
2023-02-12T09:47:14.893Z,55.40
2023-02-12T09:49:53.350Z,55.29
2023-02-12T09:52:23.460Z,55.25
2023-02-12T09:54:51.375Z,55.19
2023-02-12T09:57:20.917Z,54.99
2023-02-12T09:59:52.571Z,55.02
2023-02-12T10:02:20.906Z,54.79
2023-02-12T10:05:00.551Z,54.81
2023-02-12T10:07:36.940Z,54.58
2023-02-12T10:10:16.607Z,54.47
2023-02-12T10:12:50.931Z,54.75
2023-02-12T10:15:27.181Z,54.93
2023-02-12T10:17:57.507Z,54.54
2023-02-12T10:20:56.609Z,54.47
2023-02-12T10:23:47.228Z,54.30
2023-02-12T10:26:19.762Z,54.18
2023-02-12T10:28:47.685Z,54.16
2023-02-12T10:31:20.785Z,54.20
2023-02-12T10:33:50.039Z,54.03
2023-02-12T10:36:25.204Z,54.04
2023-02-12T10:38:54.569Z,53.55
2023-02-12T10:41:22.530Z,53.47
2023-02-12T10:43:50.450Z,52.83
2023-02-12T10:46:19.817Z,52.74
2023-02-12T10:48:49.304Z,52.63
2023-02-12T10:51:36.811Z,52.20
2023-02-12T10:54:32.364Z,52.38
2023-02-12T10:57:00.294Z,52.46
2023-02-12T10:59:28.177Z,52.02
2023-02-12T11:01:57.658Z,51.58
2023-02-12T11:04:27.444Z,51.49
2023-02-12T11:06:59.329Z,51.53
2023-02-12T11:09:30.611Z,51.39
2023-02-12T11:11:58.631Z,51.23
2023-02-12T11:14:26.654Z,51.05
2023-02-12T11:16:55.647Z,50.81
2023-02-12T11:19:25.725Z,50.28
2023-02-12T11:21:53.614Z,49.49
2023-02-12T11:24:31.445Z,49.88
2023-02-12T11:27:13.035Z,49.94
2023-02-12T11:29:41.000Z,49.61
2023-02-12T11:32:09.771Z,50.07
2023-02-12T11:34:39.264Z,49.91
2023-02-12T11:37:08.366Z,48.99
2023-02-12T11:39:37.231Z,49.09
2023-02-12T11:42:06.774Z,49.71
2023-02-12T11:44:36.336Z,49.71
2023-02-12T11:47:08.844Z,49.54
2023-02-12T11:49:44.237Z,48.80
2023-02-12T11:52:19.638Z,48.94
2023-02-12T11:54:47.832Z,48.38
2023-02-12T11:57:36.629Z,47.26
2023-02-12T12:00:06.439Z,47.24
2023-02-12T12:02:38.295Z,47.32
2023-02-12T12:05:10.662Z,47.41
2023-02-12T12:07:38.630Z,46.77
2023-02-12T12:10:08.735Z,46.62
2023-02-12T12:12:39.255Z,47.21
2023-02-12T12:15:25.849Z,47.23
2023-02-12T12:18:13.295Z,47.01
2023-02-12T12:20:44.868Z,47.87
2023-02-12T12:23:15.478Z,48.28
2023-02-12T12:25:45.061Z,47.49
2023-02-12T12:28:31.798Z,47.91
2023-02-12T12:31:03.689Z,47.67
2023-02-12T12:33:38.572Z,46.47
2023-02-12T12:36:51.856Z,44.93
2023-02-12T12:39:28.153Z,44.50
2023-02-12T12:42:23.632Z,46.10
2023-02-12T12:45:00.672Z,46.10
2023-02-12T12:47:30.667Z,47.23
2023-02-12T12:50:06.220Z,46.76
2023-02-12T12:52:51.984Z,45.66
2023-02-12T12:55:32.824Z,47.04
2023-02-12T12:58:02.548Z,47.92
2023-02-12T13:00:42.781Z,48.03
2023-02-12T13:03:41.112Z,47.40
2023-02-12T13:06:23.989Z,46.71
2023-02-12T13:09:11.436Z,45.21
2023-02-12T13:11:44.288Z,43.57
2023-02-12T13:14:29.927Z,42.54
2023-02-12T13:17:01.452Z,41.02
2023-02-12T13:19:35.661Z,40.82
2023-02-12T13:22:05.216Z,42.02
2023-02-12T13:24:35.597Z,41.28
2023-02-12T13:27:05.724Z,41.28
2023-02-12T13:29:35.606Z,40.67
2023-02-12T13:32:05.040Z,40.16
2023-02-12T13:34:33.349Z,38.76
2023-02-12T13:37:01.916Z,38.84
2023-02-12T13:39:33.339Z,38.23
2023-02-12T13:42:09.762Z,38.85
2023-02-12T13:44:39.738Z,38.17
2023-02-12T13:47:10.774Z,38.25
2023-02-12T13:49:42.758Z,38.70
2023-02-12T13:52:12.543Z,39.03
2023-02-12T13:54:52.601Z,39.85
2023-02-12T13:57:21.899Z,39.73
2023-02-12T13:59:50.489Z,39.90
2023-02-12T14:02:29.850Z,39.16
2023-02-12T14:04:59.887Z,39.41
2023-02-12T14:07:42.503Z,38.48
2023-02-12T14:10:22.116Z,38.11
2023-02-12T14:12:51.394Z,38.24
2023-02-12T14:15:29.712Z,37.65
2023-02-12T14:17:57.966Z,37.93
2023-02-12T14:20:28.159Z,37.72
2023-02-12T14:23:24.214Z,38.25
2023-02-12T14:26:10.062Z,39.63
2023-02-12T14:28:48.927Z,40.07
2023-02-12T14:31:31.896Z,40.89
2023-02-12T14:34:49.508Z,41.38
2023-02-12T14:37:38.272Z,40.88
2023-02-12T14:40:44.173Z,40.30
2023-02-12T14:43:32.648Z,39.49
2023-02-12T14:46:40.465Z,38.32
2023-02-12T14:49:19.507Z,37.79
2023-02-12T14:51:52.308Z,37.18
2023-02-12T14:54:31.338Z,36.98
2023-02-12T14:57:01.592Z,37.08
2023-02-12T14:59:29.498Z,37.13
2023-02-12T15:01:58.863Z,37.04
2023-02-12T15:04:27.561Z,37.06
2023-02-12T15:06:58.288Z,37.07
2023-02-12T15:09:29.747Z,37.28
2023-02-12T15:12:01.890Z,37.21
2023-02-12T15:14:31.936Z,37.23
2023-02-12T15:17:03.593Z,37.10
2023-02-12T15:19:38.815Z,36.86
2023-02-12T15:22:18.155Z,36.39
2023-02-12T15:24:46.942Z,35.98
2023-02-12T15:27:15.327Z,36.52
2023-02-12T15:29:44.092Z,37.06
2023-02-12T15:32:17.532Z,38.32
2023-02-12T15:34:45.584Z,39.26
2023-02-12T15:37:19.286Z,40.47
2023-02-12T15:39:48.044Z,41.51
2023-02-12T15:42:30.309Z,42.39
2023-02-12T15:45:19.654Z,43.22
2023-02-12T15:47:59.163Z,43.37
2023-02-12T15:50:27.134Z,43.77
2023-02-12T15:52:55.264Z,44.30
2023-02-12T15:55:25.204Z,44.71
2023-02-12T15:57:53.820Z,45.08
2023-02-12T16:00:30.149Z,45.34
2023-02-12T16:02:59.478Z,45.94
2023-02-12T16:05:27.570Z,45.88
2023-02-12T16:07:55.608Z,46.35
2023-02-12T16:10:23.684Z,46.69
2023-02-12T16:12:51.766Z,46.85
2023-02-12T16:15:27.516Z,47.05
2023-02-12T16:17:56.498Z,47.33
2023-02-12T16:20:27.206Z,47.38
2023-02-12T16:22:55.363Z,47.70
2023-02-12T16:25:24.611Z,47.84
2023-02-12T16:27:57.638Z,48.29
2023-02-12T16:30:27.798Z,48.37
2023-02-12T16:32:56.188Z,48.56
2023-02-12T16:35:30.311Z,48.72
2023-02-12T16:38:03.030Z,48.95
2023-02-12T16:40:35.864Z,48.85
2023-02-12T16:43:26.537Z,49.06
2023-02-12T16:46:04.188Z,49.33
2023-02-12T16:48:33.575Z,49.49
2023-02-12T16:51:06.106Z,49.55
2023-02-12T16:53:43.094Z,49.48
2023-02-12T16:56:15.748Z,49.76
2023-02-12T16:58:46.485Z,49.56
2023-02-12T17:01:18.076Z,49.98
2023-02-12T17:03:47.718Z,49.99
2023-02-12T17:06:17.762Z,49.93
2023-02-12T17:08:45.644Z,50.02
2023-02-12T17:11:14.266Z,50.09
2023-02-12T17:13:42.127Z,50.14
2023-02-12T17:16:12.699Z,50.33
2023-02-12T17:18:42.507Z,50.16
2023-02-12T17:21:15.977Z,50.49
2023-02-12T17:23:45.290Z,50.67
2023-02-12T17:26:13.246Z,50.85
2023-02-12T17:28:41.475Z,51.00
2023-02-12T17:31:09.546Z,51.25
2023-02-12T17:33:37.471Z,51.14
2023-02-12T17:36:06.210Z,51.35
2023-02-12T17:38:36.153Z,51.47
2023-02-12T17:41:09.440Z,51.51
2023-02-12T17:43:37.310Z,51.83
2023-02-12T17:46:09.933Z,51.86
2023-02-12T17:48:37.968Z,52.07
2023-02-12T17:51:06.304Z,52.12
2023-02-12T17:53:34.183Z,52.28
2023-02-12T17:56:02.191Z,52.54
2023-02-12T17:58:32.006Z,52.77
2023-02-12T18:01:05.515Z,52.62
2023-02-12T18:03:33.465Z,52.63
2023-02-12T18:06:01.386Z,52.64
2023-02-12T18:08:29.404Z,52.71
2023-02-12T18:10:57.693Z,53.04
2023-02-12T18:13:25.765Z,52.81
2023-02-12T18:15:55.323Z,53.13
2023-02-12T18:18:23.202Z,53.11
2023-02-12T18:20:51.126Z,53.46
2023-02-12T18:23:19.083Z,53.42
2023-02-12T18:25:46.941Z,53.41
2023-02-12T18:28:14.876Z,53.63
2023-02-12T18:30:43.855Z,53.73
2023-02-12T18:33:13.341Z,54.03
2023-02-12T18:35:41.823Z,54.02
2023-02-12T18:38:09.767Z,53.94
2023-02-12T18:40:40.799Z,54.09
2023-02-12T18:43:08.706Z,54.28
2023-02-12T18:45:36.601Z,54.46
2023-02-12T18:48:08.497Z,54.47
2023-02-12T18:50:37.798Z,54.61
2023-02-12T18:53:05.884Z,54.63
2023-02-12T18:55:33.769Z,54.81
2023-02-12T18:58:01.704Z,54.73
2023-02-12T19:00:29.740Z,54.83
2023-02-12T19:02:57.719Z,54.85
2023-02-12T19:05:26.338Z,54.89
2023-02-12T19:07:55.718Z,55.01
2023-02-12T19:10:23.660Z,55.01
2023-02-12T19:12:51.626Z,55.06
2023-02-12T19:15:19.498Z,55.01
2023-02-12T19:17:47.402Z,55.21
2023-02-12T19:20:16.875Z,55.13
2023-02-12T19:22:46.412Z,55.20
2023-02-12T19:25:15.877Z,55.32
2023-02-12T19:27:43.738Z,55.32
2023-02-12T19:30:12.514Z,55.54
2023-02-12T19:32:40.428Z,55.66
2023-02-12T19:35:08.454Z,55.45
2023-02-12T19:37:36.327Z,55.51
2023-02-12T19:40:04.230Z,55.55
2023-02-12T19:42:33.850Z,55.70
2023-02-12T19:45:01.849Z,55.64
2023-02-12T19:47:29.765Z,55.71
2023-02-12T19:49:57.663Z,55.60
2023-02-12T19:52:25.555Z,55.56
2023-02-12T19:54:53.637Z,55.62
2023-02-12T19:57:21.530Z,55.55
2023-02-12T19:59:50.775Z,55.56
2023-02-12T20:02:18.742Z,55.57
2023-02-12T20:04:47.329Z,55.49
2023-02-12T20:07:15.281Z,55.57
2023-02-12T20:09:43.166Z,55.60
2023-02-12T20:12:11.376Z,55.54
2023-02-12T20:14:39.283Z,55.67
2023-02-12T20:17:08.581Z,55.50
2023-02-12T20:19:36.465Z,55.48
2023-02-12T20:22:04.666Z,55.59
2023-02-12T20:24:33.914Z,55.58
2023-02-12T20:27:02.254Z,55.60
2023-02-12T20:29:30.133Z,55.63
2023-02-12T20:31:58.096Z,55.85
2023-02-12T20:34:27.434Z,55.86
2023-02-12T20:36:55.322Z,55.76
2023-02-12T20:39:23.377Z,55.61
2023-02-12T20:41:51.294Z,55.92
2023-02-12T20:44:21.315Z,55.94
2023-02-12T20:46:52.492Z,55.85
2023-02-12T20:49:23.925Z,55.78
2023-02-12T20:51:53.285Z,55.89
2023-02-12T20:54:21.216Z,55.80
2023-02-12T20:56:49.762Z,55.55
2023-02-12T20:59:18.495Z,55.51
2023-02-12T21:01:46.919Z,55.49
2023-02-12T21:04:16.817Z,55.37
2023-02-12T21:06:45.663Z,55.46
2023-02-12T21:09:15.084Z,55.46
2023-02-12T21:11:45.594Z,55.66
2023-02-12T21:14:23.589Z,55.61
2023-02-12T21:16:52.389Z,55.56
2023-02-12T21:19:20.348Z,55.60
2023-02-12T21:21:48.241Z,55.50
2023-02-12T21:24:19.720Z,55.52
2023-02-12T21:26:47.583Z,55.46
2023-02-12T21:29:15.533Z,55.79
2023-02-12T21:31:44.578Z,55.76
2023-02-12T21:34:14.101Z,55.76
2023-02-12T21:36:43.058Z,55.99
2023-02-12T21:39:12.870Z,55.95
2023-02-12T21:41:42.976Z,56.04
2023-02-12T21:44:12.419Z,56.03
2023-02-12T21:46:40.339Z,56.29
2023-02-12T21:49:08.216Z,56.13
2023-02-12T21:51:39.114Z,56.40
2023-02-12T21:54:08.147Z,56.41
2023-02-12T21:56:37.033Z,56.45
2023-02-12T21:59:06.314Z,56.32
2023-02-12T22:01:35.323Z,56.42
2023-02-12T22:04:03.203Z,56.32
2023-02-12T22:06:31.094Z,56.31
2023-02-12T22:09:02.540Z,56.04
2023-02-12T22:11:30.424Z,56.44
2023-02-12T22:13:58.305Z,56.34
2023-02-12T22:16:28.644Z,56.26
2023-02-12T22:18:57.383Z,56.27
2023-02-12T22:21:26.247Z,56.27
2023-02-12T22:23:54.568Z,56.23
2023-02-12T22:26:23.309Z,56.19
2023-02-12T22:28:51.907Z,56.28
2023-02-12T22:31:21.935Z,56.36
2023-02-12T22:33:51.712Z,56.36
2023-02-12T22:36:21.871Z,56.34
2023-02-12T22:38:49.813Z,56.34
2023-02-12T22:41:17.687Z,56.42
2023-02-12T22:43:45.649Z,56.46
2023-02-12T22:46:14.105Z,56.33
2023-02-12T22:48:42.040Z,56.37
2023-02-12T22:51:14.111Z,56.45
2023-02-12T22:53:42.020Z,56.38
2023-02-12T22:56:10.131Z,56.29
2023-02-12T22:58:38.685Z,56.37
2023-02-12T23:01:07.272Z,56.37
2023-02-12T23:03:37.378Z,56.29
2023-02-12T23:06:06.058Z,56.30
2023-02-12T23:08:35.425Z,56.45
2023-02-12T23:11:03.311Z,56.47
2023-02-12T23:13:31.319Z,56.47
2023-02-12T23:15:59.365Z,56.48
2023-02-12T23:18:27.342Z,56.56
2023-02-12T23:20:55.751Z,56.49
2023-02-12T23:23:23.830Z,56.50
2023-02-12T23:25:54.496Z,56.60
2023-02-12T23:28:22.545Z,56.51
2023-02-12T23:30:50.691Z,56.54
2023-02-12T23:33:19.166Z,56.71
2023-02-12T23:35:47.205Z,56.63
2023-02-12T23:38:15.123Z,56.75
2023-02-12T23:40:43.105Z,56.77
2023-02-12T23:43:12.406Z,56.70
2023-02-12T23:45:40.344Z,56.71
2023-02-12T23:48:08.254Z,56.76
2023-02-12T23:50:36.196Z,56.71
2023-02-12T23:53:04.103Z,56.93
2023-02-12T23:55:32.011Z,56.93
2023-02-12T23:57:59.859Z,56.98
